sensor_id;sensor_type;location;lat;lon;timestamp;P1;durP1;ratioP1;P2;durP2;ratioP2
31966;SDS011;18496;52.042;6.812;2023-05-10T00:01:26;8.40;;;4.88;;
31966;SDS011;18496;52.042;6.812;2023-05-10T00:03:30;9.57;;;5.25;;
31966;SDS011;18496;52.042;6.812;2023-05-10T00:05:34;7.57;;;4.55;;
31966;SDS011;18496;52.042;6.812;2023-05-10T00:07:37;8.90;;;4.47;;
31966;SDS011;18496;52.042;6.812;2023-05-10T00:09:41;5.00;;;3.22;;
31966;SDS011;18496;52.042;6.812;2023-05-10T00:11:45;5.28;;;3.03;;
31966;SDS011;18496;52.042;6.812;2023-05-10T00:13:48;5.40;;;2.40;;
31966;SDS011;18496;52.042;6.812;2023-05-10T00:15:52;5.00;;;2.92;;
31966;SDS011;18496;52.042;6.812;2023-05-10T00:17:59;3.38;;;2.08;;
31966;SDS011;18496;52.042;6.812;2023-05-10T00:20:03;3.35;;;2.78;;
31966;SDS011;18496;52.042;6.812;2023-05-10T00:22:08;4.57;;;2.47;;
31966;SDS011;18496;52.042;6.812;2023-05-10T00:24:11;4.30;;;2.38;;
31966;SDS011;18496;52.042;6.812;2023-05-10T00:26:15;4.30;;;2.70;;
31966;SDS011;18496;52.042;6.812;2023-05-10T00:28:22;4.70;;;2.13;;
31966;SDS011;18496;52.042;6.812;2023-05-10T00:30:25;3.67;;;2.45;;
31966;SDS011;18496;52.042;6.812;2023-05-10T00:32:29;3.83;;;3.00;;
31966;SDS011;18496;52.042;6.812;2023-05-10T00:34:36;4.13;;;2.58;;
31966;SDS011;18496;52.042;6.812;2023-05-10T00:36:40;4.05;;;2.90;;
31966;SDS011;18496;52.042;6.812;2023-05-10T00:38:44;3.13;;;2.55;;
31966;SDS011;18496;52.042;6.812;2023-05-10T00:40:47;4.50;;;2.78;;
31966;SDS011;18496;52.042;6.812;2023-05-10T00:42:59;5.30;;;3.00;;
31966;SDS011;18496;52.042;6.812;2023-05-10T00:45:04;3.47;;;2.65;;
31966;SDS011;18496;52.042;6.812;2023-05-10T00:47:10;3.42;;;2.53;;
31966;SDS011;18496;52.042;6.812;2023-05-10T00:49:15;4.93;;;2.60;;
31966;SDS011;18496;52.042;6.812;2023-05-10T00:51:19;3.88;;;2.38;;
31966;SDS011;18496;52.042;6.812;2023-05-10T00:53:23;4.63;;;2.60;;
31966;SDS011;18496;52.042;6.812;2023-05-10T00:55:28;5.68;;;2.90;;
31966;SDS011;18496;52.042;6.812;2023-05-10T00:57:33;3.45;;;2.10;;
31966;SDS011;18496;52.042;6.812;2023-05-10T00:59:36;3.88;;;2.50;;
31966;SDS011;18496;52.042;6.812;2023-05-10T01:01:40;3.80;;;2.80;;
31966;SDS011;18496;52.042;6.812;2023-05-10T01:03:46;3.95;;;2.15;;
31966;SDS011;18496;52.042;6.812;2023-05-10T01:05:52;3.88;;;2.45;;
31966;SDS011;18496;52.042;6.812;2023-05-10T01:07:56;3.17;;;2.55;;
31966;SDS011;18496;52.042;6.812;2023-05-10T01:09:59;5.38;;;2.67;;
31966;SDS011;18496;52.042;6.812;2023-05-10T01:12:03;2.72;;;2.17;;
31966;SDS011;18496;52.042;6.812;2023-05-10T01:14:09;2.53;;;2.08;;
31966;SDS011;18496;52.042;6.812;2023-05-10T01:16:13;3.35;;;2.33;;
31966;SDS011;18496;52.042;6.812;2023-05-10T01:18:18;3.22;;;2.47;;
31966;SDS011;18496;52.042;6.812;2023-05-10T01:20:23;3.70;;;2.42;;
31966;SDS011;18496;52.042;6.812;2023-05-10T01:24:55;4.38;;;2.80;;
31966;SDS011;18496;52.042;6.812;2023-05-10T01:29:59;5.53;;;2.45;;
31966;SDS011;18496;52.042;6.812;2023-05-10T01:34:21;4.53;;;2.72;;
31966;SDS011;18496;52.042;6.812;2023-05-10T01:36:31;5.10;;;3.17;;
31966;SDS011;18496;52.042;6.812;2023-05-10T01:38:49;3.20;;;2.53;;
31966;SDS011;18496;52.042;6.812;2023-05-10T01:43:15;5.85;;;3.28;;
31966;SDS011;18496;52.042;6.812;2023-05-10T01:45:27;4.57;;;2.90;;
31966;SDS011;18496;52.042;6.812;2023-05-10T01:47:37;4.95;;;3.10;;
31966;SDS011;18496;52.042;6.812;2023-05-10T01:49:49;3.58;;;2.70;;
31966;SDS011;18496;52.042;6.812;2023-05-10T01:51:57;3.97;;;2.70;;
31966;SDS011;18496;52.042;6.812;2023-05-10T01:54:07;4.47;;;3.63;;
31966;SDS011;18496;52.042;6.812;2023-05-10T01:56:12;6.38;;;3.95;;
31966;SDS011;18496;52.042;6.812;2023-05-10T01:58:36;4.70;;;3.30;;
31966;SDS011;18496;52.042;6.812;2023-05-10T02:00:44;6.47;;;3.80;;
31966;SDS011;18496;52.042;6.812;2023-05-10T02:02:52;7.70;;;3.83;;
31966;SDS011;18496;52.042;6.812;2023-05-10T02:04:57;7.68;;;4.30;;
31966;SDS011;18496;52.042;6.812;2023-05-10T02:07:02;6.45;;;4.10;;
31966;SDS011;18496;52.042;6.812;2023-05-10T02:09:07;6.15;;;4.32;;
31966;SDS011;18496;52.042;6.812;2023-05-10T02:11:13;6.03;;;4.57;;
31966;SDS011;18496;52.042;6.812;2023-05-10T02:13:17;7.30;;;4.57;;
31966;SDS011;18496;52.042;6.812;2023-05-10T02:15:22;7.30;;;5.05;;
31966;SDS011;18496;52.042;6.812;2023-05-10T02:17:28;7.68;;;5.25;;
31966;SDS011;18496;52.042;6.812;2023-05-10T02:19:33;7.88;;;5.35;;
31966;SDS011;18496;52.042;6.812;2023-05-10T02:21:39;11.27;;;6.07;;
31966;SDS011;18496;52.042;6.812;2023-05-10T02:23:44;9.15;;;5.93;;
31966;SDS011;18496;52.042;6.812;2023-05-10T02:25:49;11.43;;;5.60;;
31966;SDS011;18496;52.042;6.812;2023-05-10T02:27:57;9.40;;;5.45;;
31966;SDS011;18496;52.042;6.812;2023-05-10T02:30:05;8.95;;;6.15;;
31966;SDS011;18496;52.042;6.812;2023-05-10T02:32:09;9.23;;;6.28;;
31966;SDS011;18496;52.042;6.812;2023-05-10T02:34:15;10.43;;;6.32;;
31966;SDS011;18496;52.042;6.812;2023-05-10T02:36:19;8.75;;;5.97;;
31966;SDS011;18496;52.042;6.812;2023-05-10T02:38:25;9.30;;;6.63;;
31966;SDS011;18496;52.042;6.812;2023-05-10T02:40:29;10.45;;;7.40;;
31966;SDS011;18496;52.042;6.812;2023-05-10T02:42:35;11.48;;;7.10;;
31966;SDS011;18496;52.042;6.812;2023-05-10T02:44:41;11.32;;;7.15;;
31966;SDS011;18496;52.042;6.812;2023-05-10T02:46:46;14.45;;;7.72;;
31966;SDS011;18496;52.042;6.812;2023-05-10T02:48:50;12.45;;;7.78;;
31966;SDS011;18496;52.042;6.812;2023-05-10T02:50:54;14.57;;;8.25;;
31966;SDS011;18496;52.042;6.812;2023-05-10T02:53:06;14.00;;;7.63;;
31966;SDS011;18496;52.042;6.812;2023-05-10T02:55:15;13.13;;;7.38;;
31966;SDS011;18496;52.042;6.812;2023-05-10T02:57:26;13.98;;;8.57;;
31966;SDS011;18496;52.042;6.812;2023-05-10T03:01:36;17.25;;;9.77;;
31966;SDS011;18496;52.042;6.812;2023-05-10T03:03:40;16.65;;;10.40;;
31966;SDS011;18496;52.042;6.812;2023-05-10T03:05:43;14.90;;;9.25;;
31966;SDS011;18496;52.042;6.812;2023-05-10T03:07:47;18.10;;;10.25;;
31966;SDS011;18496;52.042;6.812;2023-05-10T03:09:51;18.83;;;9.73;;
31966;SDS011;18496;52.042;6.812;2023-05-10T03:16:42;20.67;;;11.48;;
31966;SDS011;18496;52.042;6.812;2023-05-10T03:19:08;17.63;;;10.25;;
31966;SDS011;18496;52.042;6.812;2023-05-10T03:21:30;21.38;;;11.77;;
31966;SDS011;18496;52.042;6.812;2023-05-10T03:23:40;21.83;;;12.02;;
31966;SDS011;18496;52.042;6.812;2023-05-10T03:25:46;21.08;;;11.77;;
31966;SDS011;18496;52.042;6.812;2023-05-10T03:27:52;21.80;;;11.77;;
31966;SDS011;18496;52.042;6.812;2023-05-10T03:29:57;23.90;;;11.85;;
31966;SDS011;18496;52.042;6.812;2023-05-10T03:32:01;25.00;;;12.40;;
31966;SDS011;18496;52.042;6.812;2023-05-10T03:34:07;24.38;;;13.50;;
31966;SDS011;18496;52.042;6.812;2023-05-10T03:36:11;28.83;;;14.75;;
31966;SDS011;18496;52.042;6.812;2023-05-10T03:38:15;28.83;;;14.45;;
31966;SDS011;18496;52.042;6.812;2023-05-10T03:40:19;30.70;;;14.80;;
31966;SDS011;18496;52.042;6.812;2023-05-10T03:42:23;31.08;;;15.15;;
31966;SDS011;18496;52.042;6.812;2023-05-10T03:44:27;36.03;;;16.17;;
31966;SDS011;18496;52.042;6.812;2023-05-10T03:46:30;40.47;;;17.73;;
31966;SDS011;18496;52.042;6.812;2023-05-10T03:48:34;35.25;;;16.20;;
31966;SDS011;18496;52.042;6.812;2023-05-10T03:50:38;35.90;;;16.67;;
31966;SDS011;18496;52.042;6.812;2023-05-10T03:52:42;36.92;;;16.83;;
31966;SDS011;18496;52.042;6.812;2023-05-10T03:54:46;40.10;;;18.70;;
31966;SDS011;18496;52.042;6.812;2023-05-10T03:56:50;39.65;;;18.77;;
31966;SDS011;18496;52.042;6.812;2023-05-10T03:58:55;38.53;;;18.05;;
31966;SDS011;18496;52.042;6.812;2023-05-10T04:00:59;43.22;;;18.77;;
31966;SDS011;18496;52.042;6.812;2023-05-10T04:03:03;50.22;;;20.15;;
31966;SDS011;18496;52.042;6.812;2023-05-10T04:05:06;42.40;;;19.88;;
31966;SDS011;18496;52.042;6.812;2023-05-10T04:07:10;41.75;;;19.10;;
31966;SDS011;18496;52.042;6.812;2023-05-10T04:09:14;48.75;;;19.75;;
31966;SDS011;18496;52.042;6.812;2023-05-10T04:11:19;43.53;;;19.10;;
31966;SDS011;18496;52.042;6.812;2023-05-10T04:13:24;49.60;;;21.33;;
31966;SDS011;18496;52.042;6.812;2023-05-10T04:15:30;44.72;;;20.27;;
31966;SDS011;18496;52.042;6.812;2023-05-10T04:17:34;44.88;;;19.85;;
31966;SDS011;18496;52.042;6.812;2023-05-10T04:19:37;49.50;;;21.40;;
31966;SDS011;18496;52.042;6.812;2023-05-10T04:21:41;48.15;;;22.40;;
31966;SDS011;18496;52.042;6.812;2023-05-10T04:23:45;47.05;;;21.95;;
31966;SDS011;18496;52.042;6.812;2023-05-10T04:25:48;47.95;;;21.35;;
31966;SDS011;18496;52.042;6.812;2023-05-10T04:27:52;48.90;;;22.48;;
31966;SDS011;18496;52.042;6.812;2023-05-10T04:29:58;47.97;;;21.23;;
31966;SDS011;18496;52.042;6.812;2023-05-10T04:32:05;56.67;;;23.00;;
31966;SDS011;18496;52.042;6.812;2023-05-10T04:34:08;45.65;;;20.48;;
31966;SDS011;18496;52.042;6.812;2023-05-10T04:36:12;46.95;;;21.80;;
31966;SDS011;18496;52.042;6.812;2023-05-10T04:38:16;59.45;;;22.33;;
31966;SDS011;18496;52.042;6.812;2023-05-10T04:40:19;57.35;;;25.55;;
31966;SDS011;18496;52.042;6.812;2023-05-10T04:42:23;55.92;;;22.52;;
31966;SDS011;18496;52.042;6.812;2023-05-10T04:44:27;55.50;;;24.60;;
31966;SDS011;18496;52.042;6.812;2023-05-10T04:46:30;53.38;;;24.60;;
31966;SDS011;18496;52.042;6.812;2023-05-10T04:48:34;56.40;;;25.08;;
31966;SDS011;18496;52.042;6.812;2023-05-10T04:50:39;51.20;;;23.67;;
31966;SDS011;18496;52.042;6.812;2023-05-10T04:52:42;54.22;;;24.05;;
31966;SDS011;18496;52.042;6.812;2023-05-10T04:54:46;52.10;;;23.50;;
31966;SDS011;18496;52.042;6.812;2023-05-10T04:56:50;49.50;;;23.88;;
31966;SDS011;18496;52.042;6.812;2023-05-10T04:58:54;59.40;;;26.33;;
31966;SDS011;18496;52.042;6.812;2023-05-10T05:00:59;62.95;;;25.15;;
31966;SDS011;18496;52.042;6.812;2023-05-10T05:05:12;64.15;;;26.83;;
31966;SDS011;18496;52.042;6.812;2023-05-10T05:07:16;62.88;;;26.90;;
31966;SDS011;18496;52.042;6.812;2023-05-10T05:09:20;65.95;;;29.23;;
31966;SDS011;18496;52.042;6.812;2023-05-10T05:11:23;59.83;;;26.38;;
31966;SDS011;18496;52.042;6.812;2023-05-10T05:13:28;71.90;;;29.33;;
31966;SDS011;18496;52.042;6.812;2023-05-10T05:15:32;65.18;;;28.00;;
31966;SDS011;18496;52.042;6.812;2023-05-10T05:17:35;67.30;;;29.48;;
31966;SDS011;18496;52.042;6.812;2023-05-10T05:19:39;67.60;;;29.20;;
31966;SDS011;18496;52.042;6.812;2023-05-10T05:21:43;69.22;;;27.85;;
31966;SDS011;18496;52.042;6.812;2023-05-10T05:23:47;71.40;;;28.17;;
31966;SDS011;18496;52.042;6.812;2023-05-10T05:25:51;69.07;;;29.05;;
31966;SDS011;18496;52.042;6.812;2023-05-10T05:27:55;72.32;;;29.17;;
31966;SDS011;18496;52.042;6.812;2023-05-10T05:29:59;68.32;;;29.67;;
31966;SDS011;18496;52.042;6.812;2023-05-10T05:32:03;70.40;;;28.05;;
31966;SDS011;18496;52.042;6.812;2023-05-10T05:34:07;66.43;;;28.58;;
31966;SDS011;18496;52.042;6.812;2023-05-10T05:36:10;71.28;;;30.50;;
31966;SDS011;18496;52.042;6.812;2023-05-10T05:38:14;71.55;;;30.23;;
31966;SDS011;18496;52.042;6.812;2023-05-10T05:40:18;69.43;;;29.63;;
31966;SDS011;18496;52.042;6.812;2023-05-10T05:42:21;64.68;;;28.92;;
31966;SDS011;18496;52.042;6.812;2023-05-10T05:44:25;69.03;;;31.05;;
31966;SDS011;18496;52.042;6.812;2023-05-10T05:46:30;68.22;;;29.80;;
31966;SDS011;18496;52.042;6.812;2023-05-10T05:48:34;67.00;;;29.30;;
31966;SDS011;18496;52.042;6.812;2023-05-10T05:50:38;73.40;;;29.83;;
31966;SDS011;18496;52.042;6.812;2023-05-10T05:52:41;71.57;;;29.83;;
31966;SDS011;18496;52.042;6.812;2023-05-10T05:54:45;70.78;;;29.02;;
31966;SDS011;18496;52.042;6.812;2023-05-10T05:56:49;72.28;;;30.17;;
31966;SDS011;18496;52.042;6.812;2023-05-10T05:58:52;79.07;;;31.52;;
31966;SDS011;18496;52.042;6.812;2023-05-10T06:00:56;76.43;;;32.10;;
31966;SDS011;18496;52.042;6.812;2023-05-10T06:03:00;75.05;;;31.10;;
31966;SDS011;18496;52.042;6.812;2023-05-10T06:05:04;71.00;;;30.33;;
31966;SDS011;18496;52.042;6.812;2023-05-10T06:07:08;77.50;;;31.80;;
31966;SDS011;18496;52.042;6.812;2023-05-10T06:09:11;75.05;;;31.27;;
31966;SDS011;18496;52.042;6.812;2023-05-10T06:11:15;76.93;;;32.45;;
31966;SDS011;18496;52.042;6.812;2023-05-10T06:13:19;71.88;;;30.40;;
31966;SDS011;18496;52.042;6.812;2023-05-10T06:15:22;73.10;;;31.08;;
31966;SDS011;18496;52.042;6.812;2023-05-10T06:17:28;76.30;;;30.75;;
31966;SDS011;18496;52.042;6.812;2023-05-10T06:19:32;80.03;;;30.25;;
31966;SDS011;18496;52.042;6.812;2023-05-10T06:21:36;71.28;;;29.40;;
31966;SDS011;18496;52.042;6.812;2023-05-10T06:23:39;70.78;;;30.13;;
31966;SDS011;18496;52.042;6.812;2023-05-10T06:25:43;72.65;;;30.10;;
31966;SDS011;18496;52.042;6.812;2023-05-10T06:27:47;77.45;;;31.65;;
31966;SDS011;18496;52.042;6.812;2023-05-10T06:29:50;64.80;;;29.40;;
31966;SDS011;18496;52.042;6.812;2023-05-10T06:31:54;72.22;;;29.08;;
31966;SDS011;18496;52.042;6.812;2023-05-10T06:33:58;67.18;;;29.10;;
31966;SDS011;18496;52.042;6.812;2023-05-10T06:36:01;73.68;;;29.00;;
31966;SDS011;18496;52.042;6.812;2023-05-10T06:38:05;65.13;;;27.98;;
31966;SDS011;18496;52.042;6.812;2023-05-10T06:40:09;71.78;;;29.42;;
31966;SDS011;18496;52.042;6.812;2023-05-10T06:42:13;71.25;;;30.52;;
31966;SDS011;18496;52.042;6.812;2023-05-10T06:44:16;76.90;;;29.55;;
31966;SDS011;18496;52.042;6.812;2023-05-10T06:46:20;70.38;;;28.55;;
31966;SDS011;18496;52.042;6.812;2023-05-10T06:48:24;73.25;;;29.55;;
31966;SDS011;18496;52.042;6.812;2023-05-10T06:50:27;67.90;;;30.30;;
31966;SDS011;18496;52.042;6.812;2023-05-10T06:52:31;67.63;;;30.00;;
31966;SDS011;18496;52.042;6.812;2023-05-10T06:54:35;71.72;;;27.08;;
31966;SDS011;18496;52.042;6.812;2023-05-10T06:56:38;69.78;;;28.17;;
31966;SDS011;18496;52.042;6.812;2023-05-10T06:58:42;66.43;;;29.13;;
31966;SDS011;18496;52.042;6.812;2023-05-10T07:00:46;64.97;;;26.52;;
31966;SDS011;18496;52.042;6.812;2023-05-10T07:02:50;71.43;;;29.92;;
31966;SDS011;18496;52.042;6.812;2023-05-10T07:04:54;65.30;;;27.00;;
31966;SDS011;18496;52.042;6.812;2023-05-10T07:06:57;61.15;;;26.98;;
31966;SDS011;18496;52.042;6.812;2023-05-10T07:09:01;63.17;;;27.77;;
31966;SDS011;18496;52.042;6.812;2023-05-10T07:11:05;57.88;;;26.83;;
31966;SDS011;18496;52.042;6.812;2023-05-10T07:13:13;56.22;;;26.77;;
31966;SDS011;18496;52.042;6.812;2023-05-10T07:15:17;61.20;;;26.88;;
31966;SDS011;18496;52.042;6.812;2023-05-10T07:17:20;62.08;;;26.98;;
31966;SDS011;18496;52.042;6.812;2023-05-10T07:19:24;58.47;;;26.08;;
31966;SDS011;18496;52.042;6.812;2023-05-10T07:21:27;58.17;;;25.50;;
31966;SDS011;18496;52.042;6.812;2023-05-10T07:23:31;53.50;;;24.80;;
31966;SDS011;18496;52.042;6.812;2023-05-10T07:25:35;53.33;;;24.27;;
31966;SDS011;18496;52.042;6.812;2023-05-10T07:27:39;54.60;;;24.55;;
31966;SDS011;18496;52.042;6.812;2023-05-10T07:29:42;59.75;;;25.33;;
31966;SDS011;18496;52.042;6.812;2023-05-10T07:31:46;55.50;;;23.67;;
31966;SDS011;18496;52.042;6.812;2023-05-10T07:33:49;48.85;;;23.13;;
31966;SDS011;18496;52.042;6.812;2023-05-10T07:35:53;57.28;;;24.02;;
31966;SDS011;18496;52.042;6.812;2023-05-10T07:37:57;53.95;;;23.98;;
31966;SDS011;18496;52.042;6.812;2023-05-10T07:40:00;53.70;;;23.05;;
31966;SDS011;18496;52.042;6.812;2023-05-10T07:42:04;55.10;;;23.95;;
31966;SDS011;18496;52.042;6.812;2023-05-10T07:44:08;55.88;;;24.13;;
31966;SDS011;18496;52.042;6.812;2023-05-10T07:46:12;57.63;;;23.60;;
31966;SDS011;18496;52.042;6.812;2023-05-10T07:48:15;51.72;;;22.52;;
31966;SDS011;18496;52.042;6.812;2023-05-10T07:50:19;55.40;;;23.27;;
31966;SDS011;18496;52.042;6.812;2023-05-10T07:52:24;55.25;;;23.15;;
31966;SDS011;18496;52.042;6.812;2023-05-10T07:54:27;51.28;;;22.95;;
31966;SDS011;18496;52.042;6.812;2023-05-10T07:56:31;58.63;;;24.15;;
31966;SDS011;18496;52.042;6.812;2023-05-10T07:58:35;52.55;;;22.80;;
31966;SDS011;18496;52.042;6.812;2023-05-10T08:00:39;51.13;;;23.98;;
31966;SDS011;18496;52.042;6.812;2023-05-10T08:02:44;59.58;;;23.65;;
31966;SDS011;18496;52.042;6.812;2023-05-10T08:04:47;53.20;;;25.20;;
31966;SDS011;18496;52.042;6.812;2023-05-10T08:06:51;57.83;;;24.67;;
31966;SDS011;18496;52.042;6.812;2023-05-10T08:08:55;59.70;;;23.95;;
31966;SDS011;18496;52.042;6.812;2023-05-10T08:10:59;57.33;;;24.55;;
31966;SDS011;18496;52.042;6.812;2023-05-10T08:13:02;56.15;;;24.27;;
31966;SDS011;18496;52.042;6.812;2023-05-10T08:15:06;54.88;;;24.98;;
31966;SDS011;18496;52.042;6.812;2023-05-10T08:17:11;58.65;;;24.25;;
31966;SDS011;18496;52.042;6.812;2023-05-10T08:19:14;55.88;;;24.90;;
31966;SDS011;18496;52.042;6.812;2023-05-10T08:21:21;52.10;;;25.08;;
31966;SDS011;18496;52.042;6.812;2023-05-10T08:23:25;57.13;;;24.55;;
31966;SDS011;18496;52.042;6.812;2023-05-10T08:25:29;55.55;;;22.98;;
31966;SDS011;18496;52.042;6.812;2023-05-10T08:27:32;55.47;;;23.90;;
31966;SDS011;18496;52.042;6.812;2023-05-10T08:29:37;50.95;;;23.73;;
31966;SDS011;18496;52.042;6.812;2023-05-10T08:31:40;61.47;;;24.35;;
31966;SDS011;18496;52.042;6.812;2023-05-10T08:33:44;56.42;;;23.08;;
31966;SDS011;18496;52.042;6.812;2023-05-10T08:35:48;51.20;;;23.83;;
31966;SDS011;18496;52.042;6.812;2023-05-10T08:37:51;58.80;;;24.67;;
31966;SDS011;18496;52.042;6.812;2023-05-10T08:39:55;56.08;;;25.30;;
31966;SDS011;18496;52.042;6.812;2023-05-10T08:41:59;50.33;;;22.70;;
31966;SDS011;18496;52.042;6.812;2023-05-10T08:44:05;52.10;;;24.42;;
31966;SDS011;18496;52.042;6.812;2023-05-10T08:46:11;48.83;;;23.35;;
31966;SDS011;18496;52.042;6.812;2023-05-10T08:48:23;52.65;;;23.30;;
31966;SDS011;18496;52.042;6.812;2023-05-10T08:50:27;56.97;;;25.52;;
31966;SDS011;18496;52.042;6.812;2023-05-10T08:52:33;49.05;;;24.70;;
31966;SDS011;18496;52.042;6.812;2023-05-10T08:54:42;51.55;;;25.08;;
31966;SDS011;18496;52.042;6.812;2023-05-10T08:56:46;59.05;;;25.27;;
31966;SDS011;18496;52.042;6.812;2023-05-10T08:58:50;56.50;;;24.88;;
31966;SDS011;18496;52.042;6.812;2023-05-10T09:00:54;61.38;;;25.50;;
31966;SDS011;18496;52.042;6.812;2023-05-10T09:02:59;52.38;;;23.65;;
31966;SDS011;18496;52.042;6.812;2023-05-10T09:05:03;57.75;;;23.40;;
31966;SDS011;18496;52.042;6.812;2023-05-10T09:07:08;57.28;;;23.67;;
31966;SDS011;18496;52.042;6.812;2023-05-10T09:09:11;50.95;;;24.27;;
31966;SDS011;18496;52.042;6.812;2023-05-10T09:11:15;55.75;;;22.92;;
31966;SDS011;18496;52.042;6.812;2023-05-10T09:13:20;45.05;;;22.10;;
31966;SDS011;18496;52.042;6.812;2023-05-10T09:15:25;49.92;;;22.60;;
31966;SDS011;18496;52.042;6.812;2023-05-10T09:17:29;49.25;;;22.98;;
31966;SDS011;18496;52.042;6.812;2023-05-10T09:19:33;45.63;;;20.30;;
31966;SDS011;18496;52.042;6.812;2023-05-10T09:21:37;43.33;;;22.05;;
31966;SDS011;18496;52.042;6.812;2023-05-10T09:23:44;44.88;;;21.80;;
31966;SDS011;18496;52.042;6.812;2023-05-10T09:26:01;43.35;;;21.77;;
31966;SDS011;18496;52.042;6.812;2023-05-10T09:28:07;47.97;;;24.10;;
31966;SDS011;18496;52.042;6.812;2023-05-10T09:30:16;49.10;;;21.90;;
31966;SDS011;18496;52.042;6.812;2023-05-10T09:32:21;49.00;;;22.73;;
31966;SDS011;18496;52.042;6.812;2023-05-10T09:34:28;52.45;;;23.00;;
31966;SDS011;18496;52.042;6.812;2023-05-10T09:36:33;52.00;;;24.48;;
31966;SDS011;18496;52.042;6.812;2023-05-10T09:38:46;44.63;;;21.40;;
31966;SDS011;18496;52.042;6.812;2023-05-10T09:40:54;53.47;;;24.42;;
31966;SDS011;18496;52.042;6.812;2023-05-10T09:43:01;52.10;;;23.38;;
31966;SDS011;18496;52.042;6.812;2023-05-10T09:45:10;48.72;;;23.05;;
31966;SDS011;18496;52.042;6.812;2023-05-10T09:47:17;52.38;;;23.02;;
31966;SDS011;18496;52.042;6.812;2023-05-10T09:49:22;46.92;;;22.10;;
31966;SDS011;18496;52.042;6.812;2023-05-10T09:51:25;56.50;;;25.05;;
31966;SDS011;18496;52.042;6.812;2023-05-10T09:53:30;54.90;;;23.25;;
31966;SDS011;18496;52.042;6.812;2023-05-10T09:55:40;44.35;;;22.88;;
31966;SDS011;18496;52.042;6.812;2023-05-10T09:57:49;55.30;;;23.45;;
31966;SDS011;18496;52.042;6.812;2023-05-10T10:00:02;51.15;;;22.77;;
31966;SDS011;18496;52.042;6.812;2023-05-10T10:02:16;52.28;;;22.92;;
31966;SDS011;18496;52.042;6.812;2023-05-10T10:04:20;50.15;;;24.10;;
31966;SDS011;18496;52.042;6.812;2023-05-10T10:06:24;51.95;;;22.08;;
31966;SDS011;18496;52.042;6.812;2023-05-10T10:08:28;46.00;;;21.90;;
31966;SDS011;18496;52.042;6.812;2023-05-10T10:10:32;46.88;;;22.52;;
31966;SDS011;18496;52.042;6.812;2023-05-10T10:12:36;47.70;;;22.00;;
31966;SDS011;18496;52.042;6.812;2023-05-10T10:14:41;44.67;;;22.13;;
31966;SDS011;18496;52.042;6.812;2023-05-10T10:16:45;51.55;;;22.20;;
31966;SDS011;18496;52.042;6.812;2023-05-10T10:18:49;46.17;;;22.35;;
31966;SDS011;18496;52.042;6.812;2023-05-10T10:20:53;49.13;;;22.10;;
31966;SDS011;18496;52.042;6.812;2023-05-10T10:22:57;44.83;;;21.33;;
31966;SDS011;18496;52.042;6.812;2023-05-10T10:25:01;37.20;;;18.88;;
31966;SDS011;18496;52.042;6.812;2023-05-10T10:32:27;41.83;;;19.05;;
31966;SDS011;18496;52.042;6.812;2023-05-10T10:34:33;37.85;;;18.90;;
31966;SDS011;18496;52.042;6.812;2023-05-10T10:36:42;37.58;;;18.83;;
31966;SDS011;18496;52.042;6.812;2023-05-10T10:41:02;41.65;;;20.17;;
31966;SDS011;18496;52.042;6.812;2023-05-10T10:43:23;45.58;;;18.27;;
31966;SDS011;18496;52.042;6.812;2023-05-10T10:45:28;38.13;;;18.42;;
31966;SDS011;18496;52.042;6.812;2023-05-10T10:47:32;38.65;;;18.65;;
31966;SDS011;18496;52.042;6.812;2023-05-10T10:52:12;34.53;;;18.23;;
31966;SDS011;18496;52.042;6.812;2023-05-10T10:54:18;30.35;;;17.52;;
31966;SDS011;18496;52.042;6.812;2023-05-10T10:56:31;35.33;;;17.80;;
31966;SDS011;18496;52.042;6.812;2023-05-10T10:58:35;32.13;;;17.95;;
31966;SDS011;18496;52.042;6.812;2023-05-10T11:00:40;29.55;;;17.40;;
31966;SDS011;18496;52.042;6.812;2023-05-10T11:02:45;38.92;;;18.65;;
31966;SDS011;18496;52.042;6.812;2023-05-10T11:04:51;40.40;;;18.70;;
31966;SDS011;18496;52.042;6.812;2023-05-10T11:07:15;35.47;;;17.50;;
31966;SDS011;18496;52.042;6.812;2023-05-10T11:09:19;33.08;;;16.27;;
31966;SDS011;18496;52.042;6.812;2023-05-10T11:11:27;39.92;;;17.58;;
31966;SDS011;18496;52.042;6.812;2023-05-10T11:13:39;40.05;;;18.33;;
31966;SDS011;18496;52.042;6.812;2023-05-10T11:17:51;38.63;;;17.70;;
31966;SDS011;18496;52.042;6.812;2023-05-10T11:20:02;34.65;;;16.52;;
31966;SDS011;18496;52.042;6.812;2023-05-10T11:22:13;39.20;;;18.70;;
31966;SDS011;18496;52.042;6.812;2023-05-10T11:24:21;40.55;;;18.52;;
31966;SDS011;18496;52.042;6.812;2023-05-10T11:26:30;35.45;;;17.80;;
31966;SDS011;18496;52.042;6.812;2023-05-10T11:28:40;40.28;;;18.10;;
31966;SDS011;18496;52.042;6.812;2023-05-10T11:30:48;46.28;;;19.48;;
31966;SDS011;18496;52.042;6.812;2023-05-10T11:32:52;45.13;;;20.35;;
31966;SDS011;18496;52.042;6.812;2023-05-10T11:34:55;43.10;;;19.15;;
31966;SDS011;18496;52.042;6.812;2023-05-10T11:36:59;43.97;;;20.20;;
31966;SDS011;18496;52.042;6.812;2023-05-10T11:39:03;52.05;;;23.42;;
31966;SDS011;18496;52.042;6.812;2023-05-10T11:41:08;50.97;;;22.27;;
31966;SDS011;18496;52.042;6.812;2023-05-10T11:43:13;42.05;;;20.70;;
31966;SDS011;18496;52.042;6.812;2023-05-10T11:45:17;56.83;;;22.15;;
31966;SDS011;18496;52.042;6.812;2023-05-10T11:47:20;46.47;;;21.08;;
31966;SDS011;18496;52.042;6.812;2023-05-10T11:49:25;47.15;;;20.85;;
31966;SDS011;18496;52.042;6.812;2023-05-10T11:51:29;49.28;;;21.67;;
31966;SDS011;18496;52.042;6.812;2023-05-10T11:53:36;49.53;;;22.05;;
31966;SDS011;18496;52.042;6.812;2023-05-10T11:55:41;49.90;;;21.13;;
31966;SDS011;18496;52.042;6.812;2023-05-10T11:57:44;45.20;;;21.55;;
31966;SDS011;18496;52.042;6.812;2023-05-10T11:59:52;49.20;;;21.83;;
31966;SDS011;18496;52.042;6.812;2023-05-10T12:01:57;43.88;;;21.35;;
31966;SDS011;18496;52.042;6.812;2023-05-10T12:04:01;41.97;;;21.38;;
31966;SDS011;18496;52.042;6.812;2023-05-10T12:06:06;42.40;;;20.42;;
31966;SDS011;18496;52.042;6.812;2023-05-10T12:08:11;43.33;;;20.70;;
31966;SDS011;18496;52.042;6.812;2023-05-10T12:10:15;41.30;;;20.38;;
31966;SDS011;18496;52.042;6.812;2023-05-10T12:12:27;39.13;;;20.98;;
31966;SDS011;18496;52.042;6.812;2023-05-10T12:14:42;41.60;;;21.08;;
31966;SDS011;18496;52.042;6.812;2023-05-10T12:16:45;49.00;;;21.00;;
31966;SDS011;18496;52.042;6.812;2023-05-10T12:18:51;44.95;;;20.27;;
31966;SDS011;18496;52.042;6.812;2023-05-10T12:20:55;48.08;;;21.92;;
31966;SDS011;18496;52.042;6.812;2023-05-10T12:23:08;41.15;;;20.88;;
31966;SDS011;18496;52.042;6.812;2023-05-10T12:25:12;53.20;;;21.67;;
31966;SDS011;18496;52.042;6.812;2023-05-10T12:27:16;37.20;;;19.80;;
31966;SDS011;18496;52.042;6.812;2023-05-10T12:29:20;37.72;;;20.10;;
31966;SDS011;18496;52.042;6.812;2023-05-10T12:31:23;43.25;;;18.50;;
31966;SDS011;18496;52.042;6.812;2023-05-10T12:33:27;39.50;;;18.02;;
31966;SDS011;18496;52.042;6.812;2023-05-10T12:35:46;37.78;;;18.67;;
31966;SDS011;18496;52.042;6.812;2023-05-10T12:37:50;37.03;;;17.77;;
31966;SDS011;18496;52.042;6.812;2023-05-10T12:39:54;31.98;;;16.88;;
31966;SDS011;18496;52.042;6.812;2023-05-10T12:41:58;27.55;;;16.23;;
31966;SDS011;18496;52.042;6.812;2023-05-10T12:44:01;32.70;;;16.88;;
31966;SDS011;18496;52.042;6.812;2023-05-10T12:46:06;38.58;;;17.30;;
31966;SDS011;18496;52.042;6.812;2023-05-10T12:48:11;37.25;;;17.52;;